This is the latest recevied weather packets stored in our database for station/object SP4MAZ-13. If no packets are shown the sender has not sent any weather packets the latest 10 day(s).
| Time | Temp. | Humidity | Pressure | Rain* | Wind** | Luminosity | Snow |
|---|---|---|---|---|---|---|---|
| 1778073476 | 21.11° C | 51% | 2147.4 hPa | - | - | - | - |
| 1778073173 | 23.33° C | 46% | 2147.4 hPa | - | - | - | - |
| 1778072870 | 22.78° C | 47% | 2147.4 hPa | - | - | - | - |
| 1778072566 | 20.56° C | 56% | 2147.4 hPa | - | - | - | - |
| 1778072262 | 22.22° C | 49% | 2147.4 hPa | - | - | - | - |
| 1778071961 | 20° C | 58% | 2147.4 hPa | - | - | - | - |
| 1778071657 | 24.44° C | 43% | 2147.4 hPa | - | - | - | - |
| 1778071353 | 23.89° C | 46% | 2147.4 hPa | - | - | - | - |
| 1778071050 | 23.33° C | 46% | 2147.4 hPa | - | - | - | - |
| 1778070748 | 21.11° C | 50% | 2147.4 hPa | - | - | - | - |
| 1778070444 | 22.78° C | 48% | 2147.4 hPa | - | - | - | - |
| 1778070142 | 21.11° C | 51% | 2147.4 hPa | - | - | - | - |
| 1778069841 | 21.67° C | 51% | 2147.4 hPa | - | - | - | - |
| 1778069538 | 20.56° C | 53% | 2147.4 hPa | - | - | - | - |
| 1778069235 | 20° C | 55% | 2147.4 hPa | - | - | - | - |
| 1778068628 | 18.33° C | 61% | 2147.4 hPa | - | - | - | - |
| 1778068325 | 17.78° C | 63% | 2147.4 hPa | - | - | - | - |
| 1778068019 | 17.22° C | 67% | 2147.4 hPa | - | - | - | - |
| 1778067715 | 17.78° C | 62% | 2147.4 hPa | - | - | - | - |
| 1778067411 | 17.78° C | 63% | 2147.4 hPa | - | - | - | - |
| 1778067110 | 18.33° C | 60% | 2147.4 hPa | - | - | - | - |
| 1778066806 | 18.89° C | 56% | 2147.4 hPa | - | - | - | - |
| 1778066505 | 19.44° C | 56% | 2147.4 hPa | - | - | - | - |
| 1778066203 | 19.44° C | 56% | 2147.4 hPa | - | - | - | - |
| 1778065900 | 17.78° C | 63% | 2147.4 hPa | - | - | - | - |
* Rain since midnight (hover to see other rain measurements)
** Current wind speed in m/s (hover to see current wind gust speed)